sensor_id;sensor_type;location;lat;lon;timestamp;P1;durP1;ratioP1;P2;durP2;ratioP2
57303;SDS011;43150;50.986;18.208;2024-03-23T00:51:43;15.70;;;8.20;;
57303;SDS011;43150;50.986;18.208;2024-03-23T00:54:08;13.90;;;7.00;;
57303;SDS011;43150;50.986;18.208;2024-03-23T00:56:34;15.00;;;7.90;;
57303;SDS011;43150;50.986;18.208;2024-03-23T00:58:59;14.90;;;7.80;;
57303;SDS011;43150;50.986;18.208;2024-03-23T01:01:25;12.20;;;7.80;;
57303;SDS011;43150;50.986;18.208;2024-03-23T01:03:50;15.30;;;8.30;;
57303;SDS011;43150;50.986;18.208;2024-03-23T01:06:16;28.30;;;21.30;;
57303;SDS011;43150;50.986;18.208;2024-03-23T01:08:41;32.70;;;26.10;;
57303;SDS011;43150;50.986;18.208;2024-03-23T01:11:07;18.10;;;10.10;;
57303;SDS011;43150;50.986;18.208;2024-03-23T01:13:33;18.60;;;11.00;;
57303;SDS011;43150;50.986;18.208;2024-03-23T01:15:59;17.60;;;11.40;;
57303;SDS011;43150;50.986;18.208;2024-03-23T01:18:24;22.00;;;10.60;;
57303;SDS011;43150;50.986;18.208;2024-03-23T01:20:53;20.40;;;11.10;;
57303;SDS011;43150;50.986;18.208;2024-03-23T01:23:19;18.50;;;12.50;;
57303;SDS011;43150;50.986;18.208;2024-03-23T01:25:51;18.90;;;10.70;;
57303;SDS011;43150;50.986;18.208;2024-03-23T01:28:16;17.90;;;10.70;;
57303;SDS011;43150;50.986;18.208;2024-03-23T01:30:42;22.30;;;13.80;;
57303;SDS011;43150;50.986;18.208;2024-03-23T01:33:08;21.10;;;14.00;;
57303;SDS011;43150;50.986;18.208;2024-03-23T01:35:33;18.40;;;12.30;;
57303;SDS011;43150;50.986;18.208;2024-03-23T01:37:59;25.00;;;14.60;;
57303;SDS011;43150;50.986;18.208;2024-03-23T01:40:24;22.70;;;13.20;;
57303;SDS011;43150;50.986;18.208;2024-03-23T01:45:45;23.60;;;14.90;;
57303;SDS011;43150;50.986;18.208;2024-03-23T01:48:11;27.00;;;15.60;;
57303;SDS011;43150;50.986;18.208;2024-03-23T01:50:37;23.20;;;12.40;;
57303;SDS011;43150;50.986;18.208;2024-03-23T01:53:04;21.60;;;13.60;;
57303;SDS011;43150;50.986;18.208;2024-03-23T01:55:31;22.40;;;13.40;;
57303;SDS011;43150;50.986;18.208;2024-03-23T01:57:57;20.90;;;12.50;;
57303;SDS011;43150;50.986;18.208;2024-03-23T02:00:23;16.90;;;10.80;;
57303;SDS011;43150;50.986;18.208;2024-03-23T02:02:49;19.00;;;10.80;;
57303;SDS011;43150;50.986;18.208;2024-03-23T02:05:14;31.30;;;26.90;;
57303;SDS011;43150;50.986;18.208;2024-03-23T02:07:40;20.10;;;11.60;;
57303;SDS011;43150;50.986;18.208;2024-03-23T02:10:06;21.80;;;11.20;;
57303;SDS011;43150;50.986;18.208;2024-03-23T02:12:32;17.90;;;11.10;;
57303;SDS011;43150;50.986;18.208;2024-03-23T02:14:59;17.70;;;10.20;;
57303;SDS011;43150;50.986;18.208;2024-03-23T02:17:24;19.40;;;11.30;;
57303;SDS011;43150;50.986;18.208;2024-03-23T02:19:50;19.70;;;11.20;;
57303;SDS011;43150;50.986;18.208;2024-03-23T02:22:15;20.90;;;10.80;;
57303;SDS011;43150;50.986;18.208;2024-03-23T02:24:41;17.20;;;10.50;;
57303;SDS011;43150;50.986;18.208;2024-03-23T02:27:07;18.10;;;12.50;;
57303;SDS011;43150;50.986;18.208;2024-03-23T02:29:33;17.90;;;11.80;;
57303;SDS011;43150;50.986;18.208;2024-03-23T02:31:58;26.30;;;13.30;;
57303;SDS011;43150;50.986;18.208;2024-03-23T02:34:24;19.80;;;11.10;;
57303;SDS011;43150;50.986;18.208;2024-03-23T02:36:50;20.60;;;10.80;;
57303;SDS011;43150;50.986;18.208;2024-03-23T02:39:16;21.40;;;12.50;;
57303;SDS011;43150;50.986;18.208;2024-03-23T02:41:42;21.80;;;13.60;;
57303;SDS011;43150;50.986;18.208;2024-03-23T02:44:07;21.20;;;12.50;;
57303;SDS011;43150;50.986;18.208;2024-03-23T02:46:37;17.80;;;9.20;;
57303;SDS011;43150;50.986;18.208;2024-03-23T02:49:03;20.20;;;10.10;;
57303;SDS011;43150;50.986;18.208;2024-03-23T02:51:30;15.70;;;8.90;;
57303;SDS011;43150;50.986;18.208;2024-03-23T02:53:55;26.40;;;22.50;;
57303;SDS011;43150;50.986;18.208;2024-03-23T02:56:21;18.70;;;9.60;;
57303;SDS011;43150;50.986;18.208;2024-03-23T02:58:47;18.10;;;10.10;;
57303;SDS011;43150;50.986;18.208;2024-03-23T03:01:12;17.90;;;8.40;;
57303;SDS011;43150;50.986;18.208;2024-03-23T03:03:38;19.00;;;10.50;;
57303;SDS011;43150;50.986;18.208;2024-03-23T03:06:03;18.60;;;10.70;;
57303;SDS011;43150;50.986;18.208;2024-03-23T03:08:29;16.50;;;9.60;;
57303;SDS011;43150;50.986;18.208;2024-03-23T03:10:56;14.60;;;8.30;;
57303;SDS011;43150;50.986;18.208;2024-03-23T03:13:21;17.70;;;9.70;;
57303;SDS011;43150;50.986;18.208;2024-03-23T03:15:48;21.60;;;9.40;;
57303;SDS011;43150;50.986;18.208;2024-03-23T03:18:13;16.90;;;8.90;;
57303;SDS011;43150;50.986;18.208;2024-03-23T03:20:39;18.70;;;10.60;;
57303;SDS011;43150;50.986;18.208;2024-03-23T03:23:05;16.00;;;9.30;;
57303;SDS011;43150;50.986;18.208;2024-03-23T03:25:30;18.00;;;8.80;;
57303;SDS011;43150;50.986;18.208;2024-03-23T03:27:56;19.10;;;10.60;;
57303;SDS011;43150;50.986;18.208;2024-03-23T03:30:21;16.40;;;9.10;;
57303;SDS011;43150;50.986;18.208;2024-03-23T03:32:47;17.00;;;8.90;;
57303;SDS011;43150;50.986;18.208;2024-03-23T03:35:14;15.90;;;9.20;;
57303;SDS011;43150;50.986;18.208;2024-03-23T03:37:40;15.70;;;9.00;;
57303;SDS011;43150;50.986;18.208;2024-03-23T03:40:06;16.60;;;8.70;;
57303;SDS011;43150;50.986;18.208;2024-03-23T03:42:34;16.00;;;8.40;;
57303;SDS011;43150;50.986;18.208;2024-03-23T03:44:59;14.80;;;8.50;;
57303;SDS011;43150;50.986;18.208;2024-03-23T03:47:25;13.20;;;8.00;;
57303;SDS011;43150;50.986;18.208;2024-03-23T03:49:51;15.10;;;8.40;;
57303;SDS011;43150;50.986;18.208;2024-03-23T03:52:16;16.20;;;8.20;;
57303;SDS011;43150;50.986;18.208;2024-03-23T03:54:41;18.40;;;8.70;;
57303;SDS011;43150;50.986;18.208;2024-03-23T03:57:07;16.80;;;7.90;;
57303;SDS011;43150;50.986;18.208;2024-03-23T03:59:32;18.90;;;9.10;;
57303;SDS011;43150;50.986;18.208;2024-03-23T04:01:58;23.70;;;19.00;;
57303;SDS011;43150;50.986;18.208;2024-03-23T04:04:24;19.80;;;8.60;;
57303;SDS011;43150;50.986;18.208;2024-03-23T04:09:52;14.90;;;8.60;;
57303;SDS011;43150;50.986;18.208;2024-03-23T04:12:23;14.40;;;8.70;;
57303;SDS011;43150;50.986;18.208;2024-03-23T04:14:48;15.30;;;7.90;;
57303;SDS011;43150;50.986;18.208;2024-03-23T04:17:13;17.70;;;8.40;;
57303;SDS011;43150;50.986;18.208;2024-03-23T04:19:39;15.00;;;8.20;;
57303;SDS011;43150;50.986;18.208;2024-03-23T04:22:04;14.20;;;8.10;;
57303;SDS011;43150;50.986;18.208;2024-03-23T04:24:32;17.10;;;8.80;;
57303;SDS011;43150;50.986;18.208;2024-03-23T04:26:57;15.10;;;8.30;;
57303;SDS011;43150;50.986;18.208;2024-03-23T04:29:23;18.20;;;10.10;;
57303;SDS011;43150;50.986;18.208;2024-03-23T04:31:48;16.50;;;8.70;;
57303;SDS011;43150;50.986;18.208;2024-03-23T04:34:14;15.60;;;8.20;;
57303;SDS011;43150;50.986;18.208;2024-03-23T04:36:39;16.50;;;7.70;;
57303;SDS011;43150;50.986;18.208;2024-03-23T04:39:05;16.00;;;9.20;;
57303;SDS011;43150;50.986;18.208;2024-03-23T04:41:34;16.00;;;8.40;;
57303;SDS011;43150;50.986;18.208;2024-03-23T04:43:59;15.60;;;8.80;;
57303;SDS011;43150;50.986;18.208;2024-03-23T04:46:25;16.20;;;9.30;;
57303;SDS011;43150;50.986;18.208;2024-03-23T04:48:51;14.60;;;7.70;;
57303;SDS011;43150;50.986;18.208;2024-03-23T04:51:20;15.90;;;8.40;;
57303;SDS011;43150;50.986;18.208;2024-03-23T04:53:46;23.80;;;18.00;;
57303;SDS011;43150;50.986;18.208;2024-03-23T04:56:13;13.20;;;8.00;;
57303;SDS011;43150;50.986;18.208;2024-03-23T04:58:39;15.00;;;8.20;;
57303;SDS011;43150;50.986;18.208;2024-03-23T05:01:04;15.80;;;8.50;;
57303;SDS011;43150;50.986;18.208;2024-03-23T05:03:30;14.50;;;7.90;;
57303;SDS011;43150;50.986;18.208;2024-03-23T05:05:55;15.00;;;8.40;;
57303;SDS011;43150;50.986;18.208;2024-03-23T05:08:21;12.80;;;7.30;;
57303;SDS011;43150;50.986;18.208;2024-03-23T05:10:47;13.50;;;7.70;;
57303;SDS011;43150;50.986;18.208;2024-03-23T05:13:12;15.50;;;8.00;;
57303;SDS011;43150;50.986;18.208;2024-03-23T05:15:38;24.00;;;17.20;;
57303;SDS011;43150;50.986;18.208;2024-03-23T05:18:04;16.40;;;8.70;;
57303;SDS011;43150;50.986;18.208;2024-03-23T05:20:30;13.10;;;7.70;;
57303;SDS011;43150;50.986;18.208;2024-03-23T05:22:56;14.50;;;8.10;;
57303;SDS011;43150;50.986;18.208;2024-03-23T05:25:22;16.30;;;8.30;;
57303;SDS011;43150;50.986;18.208;2024-03-23T05:27:48;12.40;;;7.20;;
57303;SDS011;43150;50.986;18.208;2024-03-23T05:30:14;14.00;;;7.40;;
57303;SDS011;43150;50.986;18.208;2024-03-23T05:32:40;14.90;;;8.30;;
57303;SDS011;43150;50.986;18.208;2024-03-23T05:35:06;12.80;;;7.90;;
57303;SDS011;43150;50.986;18.208;2024-03-23T05:37:32;12.60;;;7.20;;
57303;SDS011;43150;50.986;18.208;2024-03-23T05:39:59;20.90;;;16.40;;
57303;SDS011;43150;50.986;18.208;2024-03-23T05:42:25;12.00;;;7.00;;
57303;SDS011;43150;50.986;18.208;2024-03-23T05:44:51;15.50;;;8.30;;
57303;SDS011;43150;50.986;18.208;2024-03-23T05:47:16;17.80;;;7.80;;
57303;SDS011;43150;50.986;18.208;2024-03-23T05:49:42;13.90;;;7.00;;
57303;SDS011;43150;50.986;18.208;2024-03-23T05:52:08;14.70;;;8.10;;
57303;SDS011;43150;50.986;18.208;2024-03-23T05:54:34;16.90;;;8.10;;
57303;SDS011;43150;50.986;18.208;2024-03-23T05:57:00;13.40;;;6.50;;
57303;SDS011;43150;50.986;18.208;2024-03-23T05:59:27;16.40;;;8.60;;
57303;SDS011;43150;50.986;18.208;2024-03-23T06:01:56;15.10;;;8.20;;
57303;SDS011;43150;50.986;18.208;2024-03-23T06:04:21;15.80;;;8.20;;
57303;SDS011;43150;50.986;18.208;2024-03-23T06:06:50;23.20;;;17.60;;
57303;SDS011;43150;50.986;18.208;2024-03-23T06:09:17;22.90;;;16.60;;
57303;SDS011;43150;50.986;18.208;2024-03-23T06:11:44;20.60;;;16.80;;
57303;SDS011;43150;50.986;18.208;2024-03-23T06:14:09;12.40;;;7.70;;
57303;SDS011;43150;50.986;18.208;2024-03-23T06:16:35;18.10;;;15.50;;
57303;SDS011;43150;50.986;18.208;2024-03-23T06:19:00;20.90;;;17.40;;
57303;SDS011;43150;50.986;18.208;2024-03-23T06:21:29;21.20;;;17.80;;
57303;SDS011;43150;50.986;18.208;2024-03-23T06:23:54;22.00;;;17.40;;
57303;SDS011;43150;50.986;18.208;2024-03-23T06:26:20;19.00;;;15.30;;
57303;SDS011;43150;50.986;18.208;2024-03-23T06:28:46;21.00;;;17.70;;
57303;SDS011;43150;50.986;18.208;2024-03-23T06:31:11;15.60;;;9.90;;
57303;SDS011;43150;50.986;18.208;2024-03-23T06:33:37;18.60;;;16.60;;
57303;SDS011;43150;50.986;18.208;2024-03-23T06:36:04;22.70;;;18.40;;
57303;SDS011;43150;50.986;18.208;2024-03-23T06:38:29;20.60;;;17.30;;
57303;SDS011;43150;50.986;18.208;2024-03-23T06:40:55;20.70;;;17.30;;
57303;SDS011;43150;50.986;18.208;2024-03-23T06:43:20;21.90;;;18.60;;
57303;SDS011;43150;50.986;18.208;2024-03-23T06:45:55;20.00;;;17.10;;
57303;SDS011;43150;50.986;18.208;2024-03-23T06:48:21;19.40;;;16.50;;
57303;SDS011;43150;50.986;18.208;2024-03-23T06:50:46;19.80;;;16.50;;
57303;SDS011;43150;50.986;18.208;2024-03-23T06:53:12;23.00;;;18.70;;
57303;SDS011;43150;50.986;18.208;2024-03-23T06:55:38;19.30;;;15.10;;
57303;SDS011;43150;50.986;18.208;2024-03-23T06:58:03;19.00;;;15.00;;
57303;SDS011;43150;50.986;18.208;2024-03-23T07:00:29;18.60;;;15.00;;
57303;SDS011;43150;50.986;18.208;2024-03-23T07:02:55;18.50;;;15.20;;
57303;SDS011;43150;50.986;18.208;2024-03-23T07:05:20;20.80;;;17.30;;
57303;SDS011;43150;50.986;18.208;2024-03-23T07:07:45;22.60;;;17.90;;
57303;SDS011;43150;50.986;18.208;2024-03-23T07:10:11;20.70;;;15.20;;
57303;SDS011;43150;50.986;18.208;2024-03-23T07:12:37;15.60;;;13.20;;
57303;SDS011;43150;50.986;18.208;2024-03-23T07:15:02;18.10;;;14.10;;
57303;SDS011;43150;50.986;18.208;2024-03-23T07:17:29;17.20;;;14.70;;
57303;SDS011;43150;50.986;18.208;2024-03-23T07:19:54;16.60;;;14.40;;
57303;SDS011;43150;50.986;18.208;2024-03-23T07:22:20;15.60;;;13.40;;
57303;SDS011;43150;50.986;18.208;2024-03-23T07:24:46;15.40;;;12.90;;
57303;SDS011;43150;50.986;18.208;2024-03-23T07:27:12;16.70;;;13.40;;
57303;SDS011;43150;50.986;18.208;2024-03-23T07:29:37;17.10;;;13.90;;
57303;SDS011;43150;50.986;18.208;2024-03-23T07:32:03;15.00;;;13.40;;
57303;SDS011;43150;50.986;18.208;2024-03-23T07:34:29;16.10;;;13.20;;
57303;SDS011;43150;50.986;18.208;2024-03-23T07:36:54;16.90;;;13.60;;
57303;SDS011;43150;50.986;18.208;2024-03-23T07:39:19;15.80;;;13.40;;
57303;SDS011;43150;50.986;18.208;2024-03-23T07:41:45;15.40;;;13.20;;
57303;SDS011;43150;50.986;18.208;2024-03-23T07:44:10;22.60;;;17.00;;
57303;SDS011;43150;50.986;18.208;2024-03-23T07:46:36;19.10;;;15.70;;
57303;SDS011;43150;50.986;18.208;2024-03-23T07:49:02;19.20;;;16.40;;
57303;SDS011;43150;50.986;18.208;2024-03-23T07:51:29;22.60;;;18.00;;
57303;SDS011;43150;50.986;18.208;2024-03-23T07:53:54;27.80;;;19.80;;
57303;SDS011;43150;50.986;18.208;2024-03-23T07:56:20;22.40;;;17.00;;
57303;SDS011;43150;50.986;18.208;2024-03-23T07:58:46;15.90;;;13.60;;
57303;SDS011;43150;50.986;18.208;2024-03-23T08:01:13;15.80;;;14.10;;
57303;SDS011;43150;50.986;18.208;2024-03-23T08:03:43;16.00;;;13.50;;
57303;SDS011;43150;50.986;18.208;2024-03-23T08:06:15;13.80;;;12.30;;
57303;SDS011;43150;50.986;18.208;2024-03-23T08:08:42;14.80;;;12.00;;
57303;SDS011;43150;50.986;18.208;2024-03-23T08:11:08;15.40;;;12.40;;
57303;SDS011;43150;50.986;18.208;2024-03-23T08:13:34;16.60;;;13.20;;
57303;SDS011;43150;50.986;18.208;2024-03-23T08:16:00;14.60;;;12.90;;
57303;SDS011;43150;50.986;18.208;2024-03-23T08:18:25;15.60;;;12.10;;
57303;SDS011;43150;50.986;18.208;2024-03-23T08:21:04;15.10;;;11.90;;
57303;SDS011;43150;50.986;18.208;2024-03-23T08:23:30;12.40;;;10.90;;
57303;SDS011;43150;50.986;18.208;2024-03-23T08:25:57;14.20;;;11.50;;
57303;SDS011;43150;50.986;18.208;2024-03-23T08:28:23;10.80;;;9.70;;
57303;SDS011;43150;50.986;18.208;2024-03-23T08:30:49;13.60;;;10.60;;
57303;SDS011;43150;50.986;18.208;2024-03-23T08:33:14;11.10;;;9.90;;
57303;SDS011;43150;50.986;18.208;2024-03-23T08:35:40;9.90;;;8.60;;
57303;SDS011;43150;50.986;18.208;2024-03-23T08:38:06;11.00;;;9.50;;
57303;SDS011;43150;50.986;18.208;2024-03-23T08:40:31;10.20;;;8.60;;
57303;SDS011;43150;50.986;18.208;2024-03-23T08:42:57;9.30;;;7.90;;
57303;SDS011;43150;50.986;18.208;2024-03-23T08:45:24;9.90;;;8.40;;
57303;SDS011;43150;50.986;18.208;2024-03-23T08:47:50;8.50;;;6.80;;
57303;SDS011;43150;50.986;18.208;2024-03-23T08:50:15;11.50;;;9.30;;
57303;SDS011;43150;50.986;18.208;2024-03-23T08:52:41;11.00;;;8.90;;
57303;SDS011;43150;50.986;18.208;2024-03-23T08:55:06;9.00;;;7.90;;
57303;SDS011;43150;50.986;18.208;2024-03-23T08:57:32;8.90;;;7.60;;
57303;SDS011;43150;50.986;18.208;2024-03-23T08:59:58;9.60;;;8.50;;
57303;SDS011;43150;50.986;18.208;2024-03-23T09:02:23;8.70;;;7.80;;
57303;SDS011;43150;50.986;18.208;2024-03-23T09:04:48;9.60;;;8.10;;
57303;SDS011;43150;50.986;18.208;2024-03-23T09:07:15;9.50;;;8.60;;
57303;SDS011;43150;50.986;18.208;2024-03-23T09:09:40;8.40;;;7.20;;
57303;SDS011;43150;50.986;18.208;2024-03-23T09:12:06;7.60;;;6.90;;
57303;SDS011;43150;50.986;18.208;2024-03-23T09:14:33;7.90;;;7.10;;
57303;SDS011;43150;50.986;18.208;2024-03-23T09:16:58;8.50;;;7.00;;
57303;SDS011;43150;50.986;18.208;2024-03-23T09:19:26;8.90;;;7.90;;
57303;SDS011;43150;50.986;18.208;2024-03-23T09:21:52;8.40;;;7.20;;
57303;SDS011;43150;50.986;18.208;2024-03-23T09:24:17;9.20;;;7.50;;
57303;SDS011;43150;50.986;18.208;2024-03-23T09:26:43;8.80;;;8.00;;
57303;SDS011;43150;50.986;18.208;2024-03-23T09:29:08;8.20;;;7.30;;
57303;SDS011;43150;50.986;18.208;2024-03-23T09:31:34;8.30;;;7.40;;
57303;SDS011;43150;50.986;18.208;2024-03-23T09:34:00;9.90;;;7.60;;
57303;SDS011;43150;50.986;18.208;2024-03-23T09:36:26;8.40;;;7.60;;
57303;SDS011;43150;50.986;18.208;2024-03-23T09:38:51;10.80;;;7.30;;
57303;SDS011;43150;50.986;18.208;2024-03-23T09:41:17;8.90;;;8.00;;
57303;SDS011;43150;50.986;18.208;2024-03-23T09:43:43;8.40;;;7.60;;
57303;SDS011;43150;50.986;18.208;2024-03-23T09:46:08;9.50;;;8.10;;
57303;SDS011;43150;50.986;18.208;2024-03-23T09:48:34;8.00;;;7.20;;
57303;SDS011;43150;50.986;18.208;2024-03-23T09:51:00;10.00;;;8.90;;
57303;SDS011;43150;50.986;18.208;2024-03-23T09:53:27;9.60;;;8.60;;
57303;SDS011;43150;50.986;18.208;2024-03-23T09:55:52;9.50;;;8.00;;
57303;SDS011;43150;50.986;18.208;2024-03-23T09:58:18;8.30;;;7.50;;
57303;SDS011;43150;50.986;18.208;2024-03-23T10:00:44;9.40;;;7.80;;
57303;SDS011;43150;50.986;18.208;2024-03-23T10:03:12;10.00;;;8.30;;
57303;SDS011;43150;50.986;18.208;2024-03-23T10:05:38;9.30;;;8.20;;
57303;SDS011;43150;50.986;18.208;2024-03-23T10:08:24;9.70;;;7.90;;
57303;SDS011;43150;50.986;18.208;2024-03-23T10:10:51;7.50;;;6.70;;
57303;SDS011;43150;50.986;18.208;2024-03-23T10:13:26;9.90;;;7.80;;
57303;SDS011;43150;50.986;18.208;2024-03-23T10:15:55;8.40;;;7.60;;
57303;SDS011;43150;50.986;18.208;2024-03-23T10:18:22;9.70;;;7.80;;
57303;SDS011;43150;50.986;18.208;2024-03-23T10:21:07;9.20;;;8.20;;
57303;SDS011;43150;50.986;18.208;2024-03-23T10:23:34;9.30;;;8.30;;
57303;SDS011;43150;50.986;18.208;2024-03-23T10:26:13;9.30;;;8.40;;
57303;SDS011;43150;50.986;18.208;2024-03-23T10:28:56;10.10;;;8.60;;
57303;SDS011;43150;50.986;18.208;2024-03-23T10:31:23;9.10;;;8.20;;
57303;SDS011;43150;50.986;18.208;2024-03-23T10:33:49;10.90;;;9.60;;
57303;SDS011;43150;50.986;18.208;2024-03-23T10:36:15;11.70;;;9.20;;
57303;SDS011;43150;50.986;18.208;2024-03-23T10:38:41;9.50;;;8.50;;
57303;SDS011;43150;50.986;18.208;2024-03-23T10:41:08;9.10;;;7.20;;
57303;SDS011;43150;50.986;18.208;2024-03-23T10:43:34;9.50;;;7.80;;
57303;SDS011;43150;50.986;18.208;2024-03-23T10:46:01;9.50;;;8.30;;
57303;SDS011;43150;50.986;18.208;2024-03-23T10:48:26;10.20;;;8.20;;
57303;SDS011;43150;50.986;18.208;2024-03-23T10:50:52;9.80;;;7.70;;
57303;SDS011;43150;50.986;18.208;2024-03-23T10:53:18;7.60;;;6.80;;
57303;SDS011;43150;50.986;18.208;2024-03-23T10:55:44;10.10;;;7.50;;
57303;SDS011;43150;50.986;18.208;2024-03-23T10:58:10;8.10;;;7.30;;
57303;SDS011;43150;50.986;18.208;2024-03-23T11:00:37;13.40;;;8.20;;
57303;SDS011;43150;50.986;18.208;2024-03-23T11:06:02;8.20;;;7.10;;
57303;SDS011;43150;50.986;18.208;2024-03-23T11:08:38;10.70;;;7.10;;
57303;SDS011;43150;50.986;18.208;2024-03-23T11:11:13;8.00;;;5.90;;
57303;SDS011;43150;50.986;18.208;2024-03-23T11:13:39;10.10;;;6.80;;
57303;SDS011;43150;50.986;18.208;2024-03-23T11:16:21;7.60;;;6.20;;
57303;SDS011;43150;50.986;18.208;2024-03-23T11:18:49;5.80;;;4.90;;
57303;SDS011;43150;50.986;18.208;2024-03-23T11:24:14;5.90;;;5.30;;
57303;SDS011;43150;50.986;18.208;2024-03-23T11:26:40;5.80;;;5.10;;
57303;SDS011;43150;50.986;18.208;2024-03-23T11:29:08;5.80;;;5.10;;
57303;SDS011;43150;50.986;18.208;2024-03-23T11:31:34;6.40;;;5.80;;
57303;SDS011;43150;50.986;18.208;2024-03-23T11:34:03;6.50;;;5.10;;
57303;SDS011;43150;50.986;18.208;2024-03-23T11:36:29;5.10;;;4.50;;
57303;SDS011;43150;50.986;18.208;2024-03-23T11:38:55;6.30;;;4.90;;
57303;SDS011;43150;50.986;18.208;2024-03-23T11:41:23;5.30;;;4.80;;
57303;SDS011;43150;50.986;18.208;2024-03-23T11:43:49;4.70;;;4.20;;
57303;SDS011;43150;50.986;18.208;2024-03-23T11:46:33;5.10;;;4.10;;
57303;SDS011;43150;50.986;18.208;2024-03-23T11:48:58;4.70;;;4.10;;
57303;SDS011;43150;50.986;18.208;2024-03-23T11:51:24;5.00;;;4.20;;
57303;SDS011;43150;50.986;18.208;2024-03-23T11:53:51;4.50;;;3.80;;
57303;SDS011;43150;50.986;18.208;2024-03-23T11:56:17;7.90;;;4.80;;
57303;SDS011;43150;50.986;18.208;2024-03-23T11:58:43;4.60;;;4.20;;
57303;SDS011;43150;50.986;18.208;2024-03-23T12:01:10;5.40;;;4.00;;
57303;SDS011;43150;50.986;18.208;2024-03-23T12:03:35;6.50;;;4.50;;
57303;SDS011;43150;50.986;18.208;2024-03-23T12:06:01;6.50;;;4.20;;
57303;SDS011;43150;50.986;18.208;2024-03-23T12:11:09;5.00;;;3.20;;
57303;SDS011;43150;50.986;18.208;2024-03-23T12:13:36;5.20;;;3.50;;
57303;SDS011;43150;50.986;18.208;2024-03-23T12:18:37;6.20;;;3.10;;
57303;SDS011;43150;50.986;18.208;2024-03-23T12:21:02;4.10;;;3.40;;
57303;SDS011;43150;50.986;18.208;2024-03-23T12:23:28;5.70;;;3.50;;
57303;SDS011;43150;50.986;18.208;2024-03-23T12:25:54;4.30;;;3.20;;
57303;SDS011;43150;50.986;18.208;2024-03-23T12:28:19;5.80;;;4.10;;
57303;SDS011;43150;50.986;18.208;2024-03-23T12:30:45;6.30;;;3.90;;
57303;SDS011;43150;50.986;18.208;2024-03-23T12:33:10;3.90;;;2.80;;
57303;SDS011;43150;50.986;18.208;2024-03-23T12:35:36;6.40;;;4.40;;
57303;SDS011;43150;50.986;18.208;2024-03-23T12:38:02;5.00;;;3.30;;
57303;SDS011;43150;50.986;18.208;2024-03-23T12:40:27;3.90;;;3.40;;
57303;SDS011;43150;50.986;18.208;2024-03-23T12:42:55;5.10;;;3.70;;
57303;SDS011;43150;50.986;18.208;2024-03-23T12:45:21;2.90;;;2.30;;
57303;SDS011;43150;50.986;18.208;2024-03-23T12:47:47;3.20;;;2.30;;
57303;SDS011;43150;50.986;18.208;2024-03-23T12:50:14;5.70;;;3.40;;
57303;SDS011;43150;50.986;18.208;2024-03-23T12:52:40;19.60;;;13.30;;
57303;SDS011;43150;50.986;18.208;2024-03-23T12:55:05;7.40;;;4.30;;
57303;SDS011;43150;50.986;18.208;2024-03-23T12:57:31;6.20;;;4.30;;
57303;SDS011;43150;50.986;18.208;2024-03-23T12:59:57;6.40;;;4.40;;
57303;SDS011;43150;50.986;18.208;2024-03-23T13:02:23;5.30;;;4.60;;
57303;SDS011;43150;50.986;18.208;2024-03-23T13:04:49;5.90;;;4.50;;
57303;SDS011;43150;50.986;18.208;2024-03-23T13:07:15;6.10;;;5.00;;
57303;SDS011;43150;50.986;18.208;2024-03-23T13:09:40;6.60;;;5.50;;
57303;SDS011;43150;50.986;18.208;2024-03-23T13:12:06;6.90;;;6.20;;
57303;SDS011;43150;50.986;18.208;2024-03-23T13:14:32;7.90;;;7.10;;
57303;SDS011;43150;50.986;18.208;2024-03-23T13:16:57;8.30;;;7.50;;
57303;SDS011;43150;50.986;18.208;2024-03-23T13:19:23;9.50;;;8.50;;
57303;SDS011;43150;50.986;18.208;2024-03-23T13:21:54;4.70;;;3.00;;
57303;SDS011;43150;50.986;18.208;2024-03-23T13:24:24;5.00;;;3.70;;
57303;SDS011;43150;50.986;18.208;2024-03-23T13:26:52;6.10;;;3.10;;
57303;SDS011;43150;50.986;18.208;2024-03-23T13:29:18;8.40;;;7.20;;
57303;SDS011;43150;50.986;18.208;2024-03-23T13:31:44;8.70;;;7.80;;
57303;SDS011;43150;50.986;18.208;2024-03-23T13:34:10;6.30;;;4.10;;
57303;SDS011;43150;50.986;18.208;2024-03-23T13:36:35;3.60;;;2.70;;
57303;SDS011;43150;50.986;18.208;2024-03-23T13:39:02;7.20;;;6.40;;
57303;SDS011;43150;50.986;18.208;2024-03-23T13:41:39;3.20;;;2.40;;
57303;SDS011;43150;50.986;18.208;2024-03-23T13:44:05;4.40;;;2.40;;
57303;SDS011;43150;50.986;18.208;2024-03-23T13:46:31;5.80;;;3.60;;
57303;SDS011;43150;50.986;18.208;2024-03-23T13:48:57;2.60;;;2.30;;
57303;SDS011;43150;50.986;18.208;2024-03-23T13:51:23;4.50;;;2.80;;
57303;SDS011;43150;50.986;18.208;2024-03-23T13:53:49;3.50;;;2.40;;
57303;SDS011;43150;50.986;18.208;2024-03-23T13:56:15;7.90;;;6.20;;
57303;SDS011;43150;50.986;18.208;2024-03-23T13:58:40;7.60;;;6.60;;
57303;SDS011;43150;50.986;18.208;2024-03-23T14:01:11;9.50;;;6.50;;
57303;SDS011;43150;50.986;18.208;2024-03-23T14:03:36;6.30;;;5.50;;
57303;SDS011;43150;50.986;18.208;2024-03-23T14:06:02;6.30;;;5.50;;
57303;SDS011;43150;50.986;18.208;2024-03-23T14:08:28;6.50;;;5.80;;
57303;SDS011;43150;50.986;18.208;2024-03-23T14:10:57;6.20;;;5.30;;
57303;SDS011;43150;50.986;18.208;2024-03-23T14:13:23;6.60;;;6.00;;
57303;SDS011;43150;50.986;18.208;2024-03-23T14:15:55;8.90;;;8.00;;
57303;SDS011;43150;50.986;18.208;2024-03-23T14:18:20;7.80;;;7.00;;
57303;SDS011;43150;50.986;18.208;2024-03-23T14:20:58;4.60;;;3.20;;
57303;SDS011;43150;50.986;18.208;2024-03-23T14:23:25;8.10;;;7.10;;
57303;SDS011;43150;50.986;18.208;2024-03-23T14:25:54;5.80;;;4.60;;
57303;SDS011;43150;50.986;18.208;2024-03-23T14:28:20;6.30;;;4.60;;
57303;SDS011;43150;50.986;18.208;2024-03-23T14:30:47;6.00;;;5.30;;
57303;SDS011;43150;50.986;18.208;2024-03-23T14:33:12;5.80;;;5.00;;
57303;SDS011;43150;50.986;18.208;2024-03-23T14:35:38;4.90;;;3.30;;
57303;SDS011;43150;50.986;18.208;2024-03-23T14:38:03;5.20;;;3.90;;
57303;SDS011;43150;50.986;18.208;2024-03-23T14:40:29;4.70;;;3.50;;
57303;SDS011;43150;50.986;18.208;2024-03-23T14:42:55;4.50;;;3.80;;
57303;SDS011;43150;50.986;18.208;2024-03-23T14:45:21;3.00;;;2.10;;
57303;SDS011;43150;50.986;18.208;2024-03-23T14:47:47;3.50;;;2.20;;
57303;SDS011;43150;50.986;18.208;2024-03-23T14:50:13;4.60;;;3.20;;
57303;SDS011;43150;50.986;18.208;2024-03-23T14:52:49;3.10;;;2.30;;
57303;SDS011;43150;50.986;18.208;2024-03-23T14:55:16;3.00;;;1.90;;
57303;SDS011;43150;50.986;18.208;2024-03-23T14:57:42;5.00;;;4.00;;
57303;SDS011;43150;50.986;18.208;2024-03-23T15:00:08;4.90;;;4.30;;
57303;SDS011;43150;50.986;18.208;2024-03-23T15:02:36;3.40;;;2.60;;
57303;SDS011;43150;50.986;18.208;2024-03-23T15:05:02;3.80;;;2.40;;
57303;SDS011;43150;50.986;18.208;2024-03-23T15:07:32;4.30;;;2.70;;
57303;SDS011;43150;50.986;18.208;2024-03-23T15:09:57;5.40;;;3.70;;
57303;SDS011;43150;50.986;18.208;2024-03-23T15:12:23;3.00;;;2.20;;
57303;SDS011;43150;50.986;18.208;2024-03-23T15:14:48;4.10;;;3.00;;
57303;SDS011;43150;50.986;18.208;2024-03-23T15:17:14;2.70;;;1.80;;
57303;SDS011;43150;50.986;18.208;2024-03-23T15:19:39;3.90;;;2.90;;
57303;SDS011;43150;50.986;18.208;2024-03-23T15:22:05;2.60;;;1.80;;
57303;SDS011;43150;50.986;18.208;2024-03-23T15:24:31;2.60;;;1.50;;
57303;SDS011;43150;50.986;18.208;2024-03-23T15:26:56;2.30;;;2.00;;